Time;durP1;ratioP1;P1;durP2;ratioP2;P2;SDS_P1;SDS_P2;PMS_P1;PMS_P2;Temp;Humidity;BMP_temperature;BMP_pressure;BME280_temperature;BME280_humidity;BME280_pressure;Samples;Min_cycle;Max_cycle;Signal;HPM_P1;HPM_P2
2022/05/14 00:00:53;;;;;;;28.10;6.80;;;;;;;-149.78;100.00;50201.56;5147350;27;20543;-71
2022/05/14 00:03:19;;;;;;;31.60;6.88;;;;;;;-149.78;100.00;50189.81;5114881;28;20040;-71
2022/05/14 00:05:45;;;;;;;28.40;6.78;;;;;;;-149.78;100.00;50197.66;5096930;28;20695;-71
2022/05/14 00:08:12;;;;;;;32.05;6.50;;;;;;;-149.78;100.00;50248.50;5106966;27;20432;-71
2022/05/14 00:13:24;;;;;;;29.50;7.25;;;;;;;-149.78;100.00;50209.38;5135261;27;20042;-71
2022/05/14 00:15:51;;;;;;;29.40;6.85;;;;;;;-149.78;100.00;50221.13;5100090;27;20038;-72
2022/05/14 00:18:19;;;;;;;28.92;6.57;;;;;;;-149.78;100.00;50201.56;5135172;27;20110;-71
2022/05/14 00:20:45;;;;;;;31.98;6.95;;;;;;;-149.78;100.00;50213.28;5135263;27;20023;-71
2022/05/14 00:23:10;;;;;;;27.63;7.25;;;;;;;-149.78;100.00;50207.44;5134255;27;20467;-71
2022/05/14 00:25:37;;;;;;;32.67;7.97;;;;;;;-149.78;100.00;50209.38;5116260;27;20046;-71
2022/05/14 00:28:04;;;;;;;42.25;6.78;;;;;;;-149.78;100.00;50201.56;5135032;27;20152;-71
2022/05/14 00:30:31;;;;;;;30.30;6.72;;;;;;;-149.78;100.00;50185.91;5134923;27;20072;-71
2022/05/14 00:32:57;;;;;;;34.47;7.35;;;;;;;-149.78;100.00;50258.28;5099719;27;20370;-71
2022/05/14 00:35:24;;;;;;;30.63;7.18;;;;;;;-149.78;100.00;50217.19;5116612;27;20038;-71
2022/05/14 00:37:50;;;;;;;38.25;6.97;;;;;;;-149.78;100.00;50185.91;5116754;27;20027;-71
2022/05/14 00:40:26;;;;;;;33.45;7.38;;;;;;;-149.78;100.00;50201.56;5116489;27;20086;-71
2022/05/14 00:42:52;;;;;;;27.73;6.45;;;;;;;-149.78;100.00;50185.91;5116361;27;20461;-71
2022/05/14 00:45:19;;;;;;;35.10;8.23;;;;;;;-149.78;100.00;50209.38;5082475;27;20039;-72
2022/05/14 00:47:48;;;;;;;32.40;7.13;;;;;;;-149.78;100.00;50209.38;5134535;27;20035;-71
2022/05/14 00:50:37;;;;;;;29.50;7.10;;;;;;;-149.78;100.00;50201.56;5134768;27;20477;-71
2022/05/14 00:53:52;;;;;;;31.13;7.13;;;;;;;-149.78;100.00;50234.81;5116300;27;20023;-72
2022/05/14 00:56:25;;;;;;;31.08;6.28;;;;;;;-149.78;100.00;50174.19;5116815;27;20043;-71
2022/05/14 00:58:54;;;;;;;;;;;;;;;-149.78;100.00;50223.06;5116756;27;20023;-71
2022/05/14 01:01:20;;;;;;;29.52;7.65;;;;;;;-149.78;100.00;50217.19;5098873;27;19959;-71
2022/05/14 01:03:47;;;;;;;28.77;6.10;;;;;;;-149.78;100.00;50178.09;5134354;27;20087;-71
2022/05/14 01:06:17;;;;;;;22.50;6.80;;;;;;;-149.78;100.00;50221.13;5134275;27;20477;-71
2022/05/14 01:08:47;;;;;;;30.00;7.75;;;;;;;-149.78;100.00;50238.72;5133880;27;20084;-71
2022/05/14 01:11:15;;;;;;;35.53;6.80;;;;;;;-149.78;100.00;50213.28;5134151;27;20035;-71
2022/05/14 01:13:41;;;;;;;31.27;6.90;;;;;;;-149.78;100.00;50226.97;5115752;27;20035;-71
2022/05/14 01:16:07;;;;;;;33.53;7.28;;;;;;;-149.78;100.00;50230.88;5115660;27;20478;-69
2022/05/14 01:18:35;;;;;;;35.47;8.10;;;;;;;-149.78;100.00;50209.38;5134005;27;20397;-69
2022/05/14 01:21:04;;;;;;;32.20;7.95;;;;;;;-149.78;100.00;50182.00;5115898;27;20527;-70
2022/05/14 01:26:35;;;;;;;;;;;;;;;-149.78;100.00;50232.84;5134150;27;20103;-70
2022/05/14 01:29:07;;;;;;;26.35;6.30;;;;;;;-149.78;100.00;50232.84;5098410;27;19915;-70
2022/05/14 01:31:33;;;;;;;32.90;6.97;;;;;;;-149.78;100.00;50207.44;5115351;27;20134;-70
2022/05/14 01:34:08;;;;;;;24.85;6.25;;;;;;;-149.78;100.00;50252.41;5115495;27;20126;-70
2022/05/14 01:36:37;;;;;;;32.65;7.60;;;;;;;-149.78;100.00;50252.41;5115236;27;20054;-70
2022/05/14 01:39:04;;;;;;;22.98;5.85;;;;;;;-149.78;100.00;50225.03;5127981;27;20028;-69
2022/05/14 01:41:30;;;;;;;22.63;6.25;;;;;;;-149.78;100.00;50225.03;5133549;27;20489;-71
2022/05/14 01:43:55;;;;;;;26.30;6.63;;;;;;;-149.78;100.00;50228.94;5108820;27;20030;-70
2022/05/14 01:46:21;;;;;;;25.30;7.65;;;;;;;-149.78;100.00;50197.66;5114840;27;20125;-70
2022/05/14 01:48:47;;;;;;;24.42;6.35;;;;;;;-149.78;100.00;50221.13;5114793;27;20046;-70
2022/05/14 01:51:13;;;;;;;31.55;7.15;;;;;;;-149.78;100.00;50228.94;5115311;27;20035;-70
2022/05/14 01:53:40;;;;;;;31.88;7.07;;;;;;;-149.78;100.00;50219.16;5133363;27;20044;-69
2022/05/14 01:56:06;;;;;;;31.50;6.75;;;;;;;-149.78;100.00;50211.34;5115049;27;20065;-70
2022/05/14 01:58:38;;;;;;;29.13;6.10;;;;;;;-149.78;100.00;50213.28;5114996;27;20138;-70
2022/05/14 02:01:22;;;;;;;35.20;6.65;;;;;;;-149.78;100.00;50238.72;5133210;27;20114;-70
2022/05/14 02:03:55;;;;;;;32.55;6.07;;;;;;;-149.78;100.00;50178.09;5119096;27;20077;-70
2022/05/14 02:06:22;;;;;;;24.67;6.15;;;;;;;-149.78;100.00;50185.91;5112743;28;20035;-70
2022/05/14 02:08:48;;;;;;;22.42;6.07;;;;;;;-149.78;100.00;50201.56;5127769;27;20031;-70
2022/05/14 02:11:19;;;;;;;32.80;8.52;;;;;;;-149.78;100.00;50230.88;5115532;27;20045;-70
2022/05/14 02:13:46;;;;;;;27.55;7.45;;;;;;;-149.78;100.00;50221.13;5133284;27;20444;-70
2022/05/14 02:16:12;;;;;;;24.40;6.13;;;;;;;-149.78;100.00;50226.97;5108450;28;20031;-69
2022/05/14 02:18:38;;;;;;;25.77;6.68;;;;;;;-149.78;100.00;50219.16;5132740;27;20031;-70
2022/05/14 02:21:05;;;;;;;24.50;7.07;;;;;;;-149.78;100.00;50185.91;5132907;27;20505;-70
2022/05/14 02:23:36;;;;;;;27.17;6.80;;;;;;;-149.78;100.00;50217.19;5115147;28;20114;-70
2022/05/14 02:26:07;;;;;;;34.85;7.65;;;;;;;-149.78;100.00;50205.47;5114860;28;20083;-70
2022/05/14 02:28:36;;;;;;;24.40;6.30;;;;;;;-149.78;100.00;50189.81;5115073;28;20031;-70
2022/05/14 02:31:02;;;;;;;26.48;6.70;;;;;;;-149.78;100.00;50213.28;5133010;28;20166;-70
2022/05/14 02:33:30;;;;;;;26.05;7.18;;;;;;;-149.78;100.00;50219.16;5127634;27;20027;-70
2022/05/14 02:35:59;;;;;;;25.42;6.97;;;;;;;-149.78;100.00;50213.28;5131658;28;20027;-70
2022/05/14 02:38:26;;;;;;;22.52;6.72;;;;;;;-149.78;100.00;50236.75;5132677;28;20152;-70
2022/05/14 02:40:53;;;;;;;30.20;7.68;;;;;;;-149.78;100.00;50197.66;5132866;28;20031;-70
2022/05/14 02:43:19;;;;;;;32.75;7.55;;;;;;;-149.78;100.00;50236.75;5132659;28;20114;-70
2022/05/14 02:45:46;;;;;;;32.50;7.28;;;;;;;-149.78;100.00;50199.59;5114325;28;20142;-70
2022/05/14 02:48:12;;;;;;;31.60;7.75;;;;;;;-149.78;100.00;50209.38;5135279;27;20046;-69
2022/05/14 02:50:38;;;;;;;34.45;7.53;;;;;;;-149.78;100.00;50213.28;5118398;27;20035;-70
2022/05/14 02:53:04;;;;;;;23.90;7.07;;;;;;;-149.78;100.00;50225.03;5118415;27;20120;-70
2022/05/14 02:55:30;;;;;;;24.45;7.60;;;;;;;-149.78;100.00;50232.84;5136724;27;20031;-70
2022/05/14 02:57:56;;;;;;;24.17;6.72;;;;;;;-149.78;100.00;50250.44;5136872;27;20033;-70
2022/05/14 03:00:23;;;;;;;21.90;6.72;;;;;;;-149.78;100.00;50209.38;5118502;27;20027;-69
2022/05/14 03:02:48;;;;;;;22.83;6.65;;;;;;;-149.78;100.00;50271.97;5136712;27;20136;-70
2022/05/14 03:05:19;;;;;;;34.90;7.18;;;;;;;-149.78;100.00;50228.94;5118341;27;20106;-70
2022/05/14 03:07:45;;;;;;;27.42;7.05;;;;;;;-149.78;100.00;50240.66;5117941;27;20030;-70
2022/05/14 03:10:12;;;;;;;34.10;8.18;;;;;;;-149.78;100.00;50256.31;5136389;27;20058;-70
2022/05/14 03:12:38;;;;;;;24.98;7.30;;;;;;;-149.78;100.00;50270.00;5118205;27;20550;-70
2022/05/14 03:15:06;;;;;;;31.02;8.23;;;;;;;-149.78;100.00;50256.31;5117969;27;20087;-69
2022/05/14 03:17:35;;;;;;;29.15;7.78;;;;;;;-149.78;100.00;50209.38;5127851;27;20034;-69
2022/05/14 03:20:11;;;;;;;28.40;7.50;;;;;;;-149.78;100.00;50226.97;5080857;28;20039;-70
2022/05/14 03:22:39;;;;;;;33.83;7.72;;;;;;;-149.78;100.00;50225.03;5131867;27;20035;-70
2022/05/14 03:25:06;;;;;;;27.80;7.72;;;;;;;-149.78;100.00;50271.97;5136207;27;20041;-70
2022/05/14 03:27:31;;;;;;;25.80;8.50;;;;;;;-149.78;100.00;50256.31;5117726;27;20046;-70
2022/05/14 03:29:57;;;;;;;26.95;7.70;;;;;;;-149.78;100.00;50234.81;5117669;27;20035;-70
2022/05/14 03:32:24;;;;;;;28.90;7.78;;;;;;;-149.78;100.00;50244.59;5136295;27;20042;-70
2022/05/14 03:34:50;;;;;;;30.75;7.30;;;;;;;-149.78;100.00;50234.81;5117636;27;20386;-70
2022/05/14 03:37:16;;;;;;;32.15;7.82;;;;;;;-149.78;100.00;50246.53;5117684;27;20076;-70
2022/05/14 03:39:42;;;;;;;34.38;7.85;;;;;;;-149.78;100.00;50268.03;5117747;27;20436;-71
2022/05/14 03:42:07;;;;;;;32.85;8.20;;;;;;;-149.78;100.00;50236.75;5100681;27;20126;-70
2022/05/14 03:44:34;;;;;;;37.92;7.72;;;;;;;-149.78;100.00;50182.00;5100706;27;20130;-70
2022/05/14 03:46:59;;;;;;;27.95;7.93;;;;;;;-149.78;100.00;50313.03;5135834;27;20117;-70
2022/05/14 03:49:25;;;;;;;33.17;8.07;;;;;;;-149.78;100.00;50258.28;5117430;27;20183;-70
2022/05/14 03:51:52;;;;;;;29.70;6.78;;;;;;;-149.78;100.00;50228.94;5117421;27;20031;-70
2022/05/14 03:54:18;;;;;;;27.90;7.57;;;;;;;-149.78;100.00;50293.47;5117699;27;20035;-70
2022/05/14 03:56:44;;;;;;;27.95;8.30;;;;;;;-149.78;100.00;50232.84;5135687;27;20092;-70
2022/05/14 03:59:10;;;;;;;27.10;7.35;;;;;;;-149.78;100.00;50232.84;5116045;27;20118;-70
2022/05/14 04:01:36;;;;;;;24.42;6.78;;;;;;;-149.78;100.00;50256.31;5135638;27;20031;-70
2022/05/14 04:04:02;;;;;;;23.30;7.60;;;;;;;-149.78;100.00;50268.03;5117303;27;20035;-70
2022/05/14 04:06:28;;;;;;;27.63;7.68;;;;;;;-149.78;100.00;50228.94;5135484;27;20897;-70
2022/05/14 04:08:54;;;;;;;21.35;6.78;;;;;;;-149.78;100.00;50232.84;5117007;27;20030;-70
2022/05/14 04:11:19;;;;;;;25.83;7.45;;;;;;;-149.78;100.00;50232.84;5135521;27;20087;-70
2022/05/14 04:13:45;;;;;;;32.58;7.90;;;;;;;-149.78;100.00;50281.75;5135393;27;20043;-70
2022/05/14 04:16:11;;;;;;;37.15;7.70;;;;;;;-149.78;100.00;50256.31;5100000;27;20039;-70
2022/05/14 04:18:37;;;;;;;30.27;8.38;;;;;;;-149.78;100.00;50256.31;5135235;27;20035;-70
2022/05/14 04:21:04;;;;;;;19.42;7.25;;;;;;;-149.78;100.00;50232.84;5100218;27;20038;-70
2022/05/14 04:23:32;;;;;;;23.38;7.40;;;;;;;-149.78;100.00;50254.34;5082860;27;20035;-70
2022/05/14 04:25:59;;;;;;;30.30;8.20;;;;;;;-149.78;100.00;50268.03;5135032;27;20470;-70
2022/05/14 04:28:25;;;;;;;35.78;8.38;;;;;;;-149.78;100.00;50275.88;5135066;27;20390;-70
2022/05/14 04:30:52;;;;;;;22.27;6.47;;;;;;;-149.78;100.00;50295.44;5116575;27;20031;-70
2022/05/14 04:33:17;;;;;;;37.28;9.10;;;;;;;-149.78;100.00;50258.28;5116902;27;20553;-71
2022/05/14 04:35:44;;;;;;;25.38;7.95;;;;;;;-149.78;100.00;50275.88;5116712;27;20123;-70
2022/05/14 04:38:10;;;;;;;29.70;6.68;;;;;;;-149.78;100.00;50264.13;5134916;27;20038;-70
2022/05/14 04:40:37;;;;;;;31.25;8.05;;;;;;;-149.78;100.00;50287.59;5134081;27;20027;-70
2022/05/14 04:43:08;;;;;;;27.27;8.60;;;;;;;-149.78;100.00;50287.59;5090529;28;20067;-70
2022/05/14 04:45:34;;;;;;;31.30;9.45;;;;;;;-149.78;100.00;50275.88;5095697;28;20486;-70
2022/05/14 04:48:00;;;;;;;23.10;7.80;;;;;;;-149.78;100.00;50295.44;5095881;28;20043;-70
2022/05/14 04:50:26;;;;;;;39.58;9.68;;;;;;;-149.78;100.00;50275.88;5096065;28;20039;-70
2022/05/14 04:52:51;;;;;;;32.33;8.02;;;;;;;-149.78;100.00;50283.69;5123801;27;20035;-70
2022/05/14 04:55:17;;;;;;;26.25;7.90;;;;;;;-149.78;100.00;50256.31;5134635;27;20367;-70
2022/05/14 04:57:44;;;;;;;37.00;8.48;;;;;;;-149.78;100.00;50291.50;5116201;27;20035;-69
2022/05/14 05:00:13;;;;;;;25.42;8.15;;;;;;;-149.78;100.00;50293.47;5116261;27;20031;-70
2022/05/14 05:05:24;;;;;;;31.63;8.15;;;;;;;-149.78;100.00;50260.22;5116061;27;20502;-70
2022/05/14 05:07:50;;;;;;;24.73;8.48;;;;;;;-149.78;100.00;50283.69;5134230;27;20501;-70
2022/05/14 05:10:16;;;;;;;24.90;8.40;;;;;;;-149.78;100.00;50289.56;5133925;27;20043;-70
2022/05/14 05:12:42;;;;;;;26.20;7.50;;;;;;;-149.78;100.00;50279.78;5115758;27;20545;-69
2022/05/14 05:15:09;;;;;;;30.30;8.15;;;;;;;-149.78;100.00;50252.41;5098591;27;20130;-70
2022/05/14 05:17:34;;;;;;;18.70;8.00;;;;;;;-149.78;100.00;50279.78;5115467;27;20035;-69
2022/05/14 05:20:00;;;;;;;25.52;8.25;;;;;;;-149.78;100.00;50283.69;5115371;27;20050;-70
2022/05/14 05:22:26;;;;;;;29.98;8.93;;;;;;;-149.78;100.00;50248.50;5115920;27;20046;-70
2022/05/14 05:24:52;;;;;;;26.58;7.57;;;;;;;-149.78;100.00;50268.03;5115635;27;20083;-70
2022/05/14 05:27:18;;;;;;;31.48;7.95;;;;;;;-149.78;100.00;50283.69;5133920;27;20102;-70
2022/05/14 05:29:44;;;;;;;27.80;8.30;;;;;;;-149.78;100.00;50279.78;5133922;27;20038;-70
2022/05/14 05:32:10;;;;;;;44.45;9.88;;;;;;;-149.78;100.00;50271.97;5133680;27;20035;-70
2022/05/14 05:34:36;;;;;;;38.20;9.80;;;;;;;-149.78;100.00;50270.00;5098608;27;20046;-70
2022/05/14 05:37:02;;;;;;;31.77;10.05;;;;;;;-149.78;100.00;50240.66;5133785;27;20031;-69
2022/05/14 05:39:27;;;;;;;21.60;8.52;;;;;;;-149.78;100.00;50279.78;5133886;27;20323;-70
2022/05/14 05:41:54;;;;;;;25.30;8.52;;;;;;;-149.78;100.00;50271.97;5133498;27;20059;-70
2022/05/14 05:44:19;;;;;;;34.10;8.98;;;;;;;-149.78;100.00;50250.44;5133822;27;20035;-70
2022/05/14 05:46:45;;;;;;;27.77;8.18;;;;;;;-149.78;100.00;50225.03;5098329;27;20118;-70
2022/05/14 05:49:11;;;;;;;27.27;7.65;;;;;;;-149.78;100.00;50205.47;5133266;27;20050;-70
2022/05/14 05:51:37;;;;;;;29.23;6.90;;;;;;;-149.78;100.00;50213.28;5133416;27;20059;-70
2022/05/14 05:56:47;;;;;;;26.90;7.68;;;;;;;-149.78;100.00;50217.19;5117845;27;20031;-69
2022/05/14 05:59:15;;;;;;;22.33;6.47;;;;;;;-149.78;100.00;50236.75;5114860;27;20489;-70
2022/05/14 06:01:43;;;;;;;31.17;7.30;;;;;;;-149.78;100.00;50207.44;5133167;27;20393;-70
2022/05/14 06:04:09;;;;;;;26.23;7.43;;;;;;;-149.78;100.00;50174.19;5133292;27;20119;-70
2022/05/14 06:06:36;;;;;;;19.75;6.60;;;;;;;-149.78;100.00;50197.66;5133273;27;20113;-70
2022/05/14 06:09:02;;;;;;;33.10;7.00;;;;;;;-149.78;100.00;50217.19;5097890;27;20035;-70
2022/05/14 06:11:30;;;;;;;17.77;5.85;;;;;;;-149.78;100.00;50213.28;5115021;28;20103;-70
2022/05/14 06:13:56;;;;;;;25.92;7.05;;;;;;;-149.78;100.00;50205.47;5133154;27;20046;-70
2022/05/14 06:16:21;;;;;;;24.45;6.72;;;;;;;-149.78;100.00;50185.91;5133177;27;20118;-70
2022/05/14 06:18:47;;;;;;;18.85;5.97;;;;;;;-149.78;100.00;50146.81;5133179;27;20063;-70
2022/05/14 06:21:13;;;;;;;25.27;7.05;;;;;;;-149.78;100.00;50180.03;5114484;27;20031;-70
2022/05/14 06:23:39;;;;;;;25.38;6.60;;;;;;;-149.78;100.00;50146.81;5132568;27;20363;-70
2022/05/14 06:26:05;;;;;;;19.23;6.03;;;;;;;-149.78;100.00;50170.25;5114739;28;20035;-70
2022/05/14 06:28:31;;;;;;;18.58;5.53;;;;;;;-149.78;100.00;50150.72;5126120;28;20031;-71
2022/05/14 06:30:57;;;;;;;23.45;5.75;;;;;;;-149.78;100.00;50166.34;5126350;28;20031;-70
2022/05/14 06:33:26;;;;;;;17.92;5.30;;;;;;;-149.78;100.00;50142.88;5126164;28;20031;-70
2022/05/14 06:35:52;;;;;;;20.10;5.40;;;;;;;-149.78;100.00;50158.53;5099761;28;20031;-70
2022/05/14 06:38:19;;;;;;;18.25;6.07;;;;;;;-149.78;100.00;50146.81;5123526;28;20030;-70
2022/05/14 06:40:46;;;;;;;22.95;5.82;;;;;;;-149.78;100.00;50076.41;5128974;28;20034;-70
2022/05/14 06:43:15;;;;;;;18.40;5.18;;;;;;;-149.78;100.00;50078.34;5120691;28;20042;-71
2022/05/14 06:45:44;;;;;;;17.48;5.95;;;;;;;-149.78;100.00;50052.94;5126277;28;20114;-71
2022/05/14 06:48:11;;;;;;;22.40;6.03;;;;;;;-149.78;100.00;50060.75;5097109;28;20093;-70
2022/05/14 06:50:42;;;;;;;23.85;6.95;;;;;;;-149.78;100.00;50056.84;5123422;28;20084;-71
2022/05/14 06:53:09;;;;;;;21.70;6.47;;;;;;;-149.78;100.00;50086.19;5110804;28;20087;-71
2022/05/14 06:55:38;;;;;;;13.98;5.30;;;;;;;-149.78;100.00;50099.88;5104851;28;20027;-71
2022/05/14 06:58:06;;;;;;;20.63;6.20;;;;;;;-149.78;100.00;50060.75;5104433;28;20072;-71
2022/05/14 07:00:32;;;;;;;23.25;6.10;;;;;;;-149.78;100.00;50084.22;5120051;28;20072;-71
2022/05/14 07:08:27;;;;;;;25.25;6.50;;;;;;;-149.78;100.00;50146.81;5093998;28;20539;-70
2022/05/14 07:10:52;;;;;;;25.08;5.95;;;;;;;-149.78;100.00;50150.72;5126398;28;20039;-70
2022/05/14 07:13:18;;;;;;;20.73;6.50;;;;;;;-149.78;100.00;50119.41;5119643;28;20076;-70
2022/05/14 07:15:43;;;;;;;17.35;5.63;;;;;;;-149.78;100.00;50115.50;5099255;28;20035;-70
2022/05/14 07:18:09;;;;;;;24.08;6.00;;;;;;;-149.78;100.00;50088.13;5106001;28;20034;-70
2022/05/14 07:20:35;;;;;;;15.82;6.07;;;;;;;-149.78;100.00;50076.41;5128273;28;20039;-70
2022/05/14 07:23:01;;;;;;;27.50;5.80;;;;;;;-149.78;100.00;50072.50;5132471;28;20039;-70
2022/05/14 07:25:27;;;;;;;18.60;6.00;;;;;;;-149.78;100.00;50088.13;5090080;28;20027;-73
2022/05/14 07:27:53;;;;;;;19.60;5.82;;;;;;;-149.78;100.00;50049.03;5131582;28;20092;-73
2022/05/14 07:30:20;;;;;;;19.75;5.45;;;;;;;-149.78;100.00;50027.50;5105005;28;20034;-73
2022/05/14 07:32:47;;;;;;;21.02;6.38;;;;;;;-149.78;100.00;50103.78;5123011;27;20122;-72
2022/05/14 07:35:12;;;;;;;14.60;5.60;;;;;;;-149.78;100.00;50060.75;5133596;27;20497;-71
2022/05/14 07:37:44;;;;;;;16.38;5.35;;;;;;;-149.78;100.00;50111.59;5108060;27;20032;-73
2022/05/14 07:40:15;;;;;;;19.20;6.22;;;;;;;-149.78;100.00;50092.03;5111475;27;20042;-73
2022/05/14 07:42:49;;;;;;;15.00;5.28;;;;;;;-149.78;100.00;50099.88;5103295;27;20075;-73
2022/05/14 07:45:18;;;;;;;26.65;6.38;;;;;;;-149.78;100.00;50115.50;5123164;27;20035;-73
2022/05/14 07:47:44;;;;;;;24.23;6.45;;;;;;;-149.78;100.00;50097.91;5122924;27;20104;-73
2022/05/14 07:50:11;;;;;;;21.33;6.15;;;;;;;-149.78;100.00;50172.22;5121960;27;20066;-73
2022/05/14 07:52:37;;;;;;;23.15;7.38;;;;;;;-149.78;100.00;50127.25;5108244;27;20024;-73
2022/05/14 07:55:04;;;;;;;22.65;6.95;;;;;;;-149.78;100.00;50076.41;5125721;27;20100;-73
2022/05/14 07:57:29;;;;;;;21.77;6.65;;;;;;;-149.78;100.00;50138.97;5097611;27;20594;-73
2022/05/14 07:59:55;;;;;;;21.35;6.82;;;;;;;-149.78;100.00;50111.59;5125918;27;20059;-72
2022/05/14 08:02:31;;;;;;;20.77;7.05;;;;;;;-149.78;100.00;50138.97;5096213;28;20036;-73
2022/05/14 08:05:09;;;;;;;27.15;7.80;;;;;;;-149.78;100.00;50138.97;5125807;27;20027;-74
2022/05/14 08:07:35;;;;;;;25.98;7.50;;;;;;;-149.78;100.00;50092.03;5104065;27;20036;-73
2022/05/14 08:10:01;;;;;;;32.13;7.32;;;;;;;-149.78;100.00;50094.00;5124597;27;20054;-74
2022/05/14 08:12:40;;;;;;;27.67;7.18;;;;;;;-149.78;100.00;50138.97;5125440;27;20482;-73
2022/05/14 08:15:07;;;;;;;16.75;6.00;;;;;;;-149.78;100.00;50086.19;5098444;28;20106;-74
2022/05/14 08:17:33;;;;;;;22.42;6.93;;;;;;;-149.78;100.00;50111.59;5119131;27;20115;-71
2022/05/14 08:19:58;;;;;;;20.15;7.03;;;;;;;-149.78;100.00;50045.09;5100504;27;20118;-72
2022/05/14 08:25:09;;;;;;;23.10;7.13;;;;;;;-149.78;100.00;50045.09;5125523;27;20023;-73
2022/05/14 08:27:44;;;;;;;25.80;7.47;;;;;;;-149.78;100.00;50070.53;5119583;27;20414;-73
2022/05/14 08:30:11;;;;;;;19.98;7.72;;;;;;;-149.78;100.00;50064.66;5116742;27;20093;-74
2022/05/14 08:32:36;;;;;;;25.30;7.50;;;;;;;-149.78;100.00;50095.94;5120503;27;20027;-72
2022/05/14 08:35:02;;;;;;;26.27;8.77;;;;;;;-149.78;100.00;50021.63;5125268;27;20126;-71
2022/05/14 08:37:28;;;;;;;21.50;8.32;;;;;;;-149.78;100.00;50029.47;5116149;27;20024;-71
2022/05/14 08:39:54;;;;;;;22.95;9.07;;;;;;;-149.78;100.00;49994.25;5102270;27;20513;-72
2022/05/14 08:42:20;;;;;;;27.90;9.25;;;;;;;-149.78;100.00;49974.72;5106228;27;20031;-74
2022/05/14 08:44:47;;;;;;;20.65;6.50;;;;;;;-149.78;100.00;49962.97;5102166;27;20043;-73
2022/05/14 08:47:34;;;;;;;20.30;6.53;;;;;;;-149.78;100.00;49974.72;5100652;27;20394;-74
2022/05/14 08:50:02;;;;;;;25.25;7.40;;;;;;;-149.78;100.00;49931.69;5101069;27;20031;-74
2022/05/14 08:52:29;;;;;;;17.88;6.60;;;;;;;-149.78;100.00;49923.88;5127127;27;20038;-73
2022/05/14 08:55:04;;;;;;;19.58;7.32;;;;;;;-149.78;100.00;49966.88;5086458;27;20036;-69
2022/05/14 08:57:41;;;;;;;19.77;6.82;;;;;;;-149.78;100.00;49959.06;5113784;27;20165;-71
2022/05/14 09:00:08;;;;;;;21.75;7.00;;;;;;;-149.78;100.00;49904.31;5102887;28;20027;-71
2022/05/14 09:02:49;;;;;;;19.45;7.38;;;;;;;-149.78;100.00;49888.66;5107558;27;20025;-70
2022/05/14 09:05:31;;;;;;;18.80;6.57;;;;;;;-149.78;87.79;49888.66;5121250;27;20112;-71
2022/05/14 09:07:57;;;;;;;17.00;5.65;;;;;;;-149.78;79.66;49861.28;5126410;27;20079;-70
2022/05/14 09:10:41;;;;;;;18.13;5.88;;;;;;;-149.78;70.78;49861.28;5128845;27;20059;-70
2022/05/14 09:13:20;;;;;;;20.15;5.38;;;;;;;-149.78;62.08;49847.59;5120051;27;20100;-70
2022/05/14 09:15:51;;;;;;;14.90;5.38;;;;;;;-149.78;58.37;49853.47;5123529;27;20040;-70
2022/05/14 09:18:21;;;;;;;17.13;5.57;;;;;;;-149.78;57.59;49892.56;5120675;27;20104;-72
2022/05/14 09:20:53;;;;;;;15.32;4.90;;;;;;;-149.78;56.42;49849.56;5125798;27;20051;-72
2022/05/14 09:23:37;;;;;;;18.50;5.93;;;;;;;-149.78;55.52;49876.94;5118534;27;20042;-72
2022/05/14 09:26:22;;;;;;;24.27;6.15;;;;;;;-149.78;51.52;49853.47;5123028;27;20062;-72
2022/05/14 09:28:54;;;;;;;14.85;5.65;;;;;;;-149.78;53.85;49904.31;5132791;27;20027;-71
2022/05/14 09:31:27;;;;;;;16.50;5.22;;;;;;;-149.78;55.33;49888.66;5132780;27;20039;-72
2022/05/14 09:34:04;;;;;;;12.93;5.18;;;;;;;-149.78;51.52;49888.66;5133759;27;20485;-72
2022/05/14 09:36:32;;;;;;;16.85;5.75;;;;;;;-149.78;51.87;49873.03;5115420;27;20091;-72
2022/05/14 09:39:08;;;;;;;16.20;5.47;;;;;;;-149.78;50.19;49853.47;5133737;27;20031;-72
2022/05/14 09:41:40;;;;;;;18.25;5.50;;;;;;;-149.78;48.37;49865.19;5133598;27;20478;-72
2022/05/14 09:44:12;;;;;;;19.23;5.50;;;;;;;-149.78;48.47;49859.34;5133649;27;20160;-72
2022/05/14 09:46:37;;;;;;;;;;;;;;;-149.78;50.71;49869.13;5134038;27;20030;-72
2022/05/14 09:49:06;;;;;;;14.32;4.78;;;;;;;-149.78;50.87;49888.66;5097877;27;19919;-72
2022/05/14 09:51:56;;;;;;;19.20;5.47;;;;;;;-149.78;51.91;49873.03;5133497;27;20027;-72
2022/05/14 09:54:39;;;;;;;18.40;7.28;;;;;;;-149.78;51.03;49892.56;5090265;27;20046;-72
2022/05/14 09:57:10;;;;;;;20.15;6.72;;;;;;;-149.78;50.50;49935.59;5133385;27;20027;-72
2022/05/14 09:59:45;;;;;;;14.07;5.70;;;;;;;-149.78;54.61;49957.09;5133439;27;20023;-72
2022/05/14 10:02:42;;;;;;;19.77;7.38;;;;;;;-149.78;57.85;49955.16;5114984;27;20027;-72
2022/05/14 10:05:22;;;;;;;17.67;5.53;;;;;;;-149.78;57.50;49959.06;5115184;27;20027;-71
2022/05/14 10:08:04;;;;;;;19.52;5.38;;;;;;;-149.78;62.76;49962.97;5133166;27;20040;-72
2022/05/14 10:11:10;;;;;;;16.30;5.05;;;;;;;-149.78;59.20;49970.78;5133255;27;20027;-72
2022/05/14 10:13:48;;;;;;;23.77;5.60;;;;;;;-149.78;57.97;49976.66;5114773;28;20031;-72
2022/05/14 10:16:32;;;;;;;15.40;5.75;;;;;;;-149.78;60.87;49962.97;5114711;27;20035;-72
2022/05/14 10:19:29;;;;;;;16.67;5.10;;;;;;;-149.78;57.52;49927.78;5132796;27;20033;-72
2022/05/14 10:22:17;;;;;;;15.65;4.78;;;;;;;-149.78;56.13;49959.06;5132800;27;20031;-72
2022/05/14 10:28:04;;;;;;;16.55;5.00;;;;;;;-149.78;56.49;49962.97;5132644;28;20039;-72
2022/05/14 10:31:13;;;;;;;21.02;9.02;;;;;;;-149.78;54.05;49957.09;5132806;28;20027;-72
2022/05/14 10:33:39;;;;;;;24.42;9.30;;;;;;;-149.78;53.56;49966.88;5104292;28;20051;-72
2022/05/14 10:36:33;;;;;;;24.42;6.80;;;;;;;-149.78;54.06;49947.34;5133014;28;20363;-72
2022/05/14 10:39:23;;;;;;;22.23;4.95;;;;;;;-149.78;52.23;49923.88;5110599;28;20134;-72
2022/05/14 10:41:59;;;;;;;17.67;5.75;;;;;;;-149.78;51.84;49919.94;5132740;28;20569;-72
2022/05/14 10:44:27;;;;;;;22.20;5.40;;;;;;;-149.78;50.98;49916.03;5132294;28;20031;-72
2022/05/14 10:46:59;;;;;;;15.80;5.20;;;;;;;-149.78;50.59;49923.88;5132572;28;20027;-72
2022/05/14 10:49:33;;;;;;;15.63;4.43;;;;;;;-149.78;47.93;49923.88;5132674;28;20078;-72
2022/05/14 10:52:00;;;;;;;14.57;4.75;;;;;;;-149.78;47.59;49912.13;5114343;28;20087;-72
2022/05/14 10:54:26;;;;;;;17.38;4.20;;;;;;;-149.78;48.50;49939.50;5132617;28;20042;-72
2022/05/14 10:56:57;;;;;;;12.40;4.15;;;;;;;-149.78;48.62;49962.97;5132722;28;20066;-73
2022/05/14 10:59:38;;;;;;;12.55;4.10;;;;;;;-149.78;48.64;49927.78;5132864;28;20031;-72
2022/05/14 11:02:38;;;;;;;18.63;4.60;;;;;;;-149.78;46.91;49939.50;5132731;28;20027;-73
2022/05/14 11:05:06;;;;;;;19.55;4.80;;;;;;;-149.78;48.60;49962.97;5088493;28;20043;-73
2022/05/14 11:07:35;;;;;;;17.98;4.82;;;;;;;-149.78;47.94;49923.88;5114143;27;20525;-72
2022/05/14 11:10:30;;;;;;;12.52;4.13;;;;;;;-149.78;46.71;49923.88;5136495;27;20111;-72
2022/05/14 11:13:09;;;;;;;12.40;4.20;;;;;;;-149.78;47.50;49919.94;5135347;27;20049;-73
2022/05/14 11:15:35;;;;;;;13.30;4.50;;;;;;;-149.78;48.95;49892.56;5136356;27;20027;-72
2022/05/14 11:18:12;;;;;;;16.55;3.90;;;;;;;-149.78;47.33;49927.78;5136483;27;20383;-72
2022/05/14 11:20:50;;;;;;;17.10;5.32;;;;;;;-149.78;47.85;49939.50;5136243;27;20392;-73
2022/05/14 11:23:15;;;;;;;15.73;4.10;;;;;;;-149.78;46.00;49904.31;5117515;27;20479;-73
2022/05/14 11:25:41;;;;;;;23.65;6.43;;;;;;;-149.78;46.76;49923.88;5135971;27;20095;-73
2022/05/14 11:28:28;;;;;;;17.48;7.65;;;;;;;-149.78;47.44;49912.13;5084091;27;20402;-73
2022/05/14 11:31:09;;;;;;;12.55;5.22;;;;;;;-149.78;46.98;49947.34;5136180;27;20497;-73
2022/05/14 11:33:35;;;;;;;18.83;4.95;;;;;;;-149.78;48.02;49951.25;5117616;27;20458;-73
2022/05/14 11:36:16;;;;;;;16.67;5.05;;;;;;;-149.78;48.18;49947.34;5117604;27;20058;-73
2022/05/14 11:38:47;;;;;;;17.98;5.20;;;;;;;-149.78;50.46;49947.34;5135831;27;20566;-73